Seattle Tacoma International Airport
KSEA : now visible

Airfield :











YOU CAN JOIN US ON...

 
LOGIN :

Register | Disclaimer

   EN    FR    IT 

 









Legend :    VFR   Marginal VFR   IFR   Intensive IFR   Very Intensive IFR
Visi :
Ceiling :
>= 8 km
>= 3000ft
5 to 8 km
1000 to 3000 ft
1500m to 5 km
500 to 1000 ft
800 to 1500m
200 to 500 ft
< 800m
< 200 ft
Symbols :   Thunderstorms  Fog  Heavy snow  Heavy precipitations  Wind > 20 kt






- Airport Elevation : 433 ft
- IATA code : SEA


KSEA - Seattle Tacoma International

CURRENT METAR :
  • 280853Z 03005KT 10SM CLR 07/04 A3023 RMK AO2 SLP243 T00670039 58023

EXPIRED METARs :
  • 280753Z 03006KT 10SM CLR 07/04 A3025 RMK AO2 SLP250 T00670039 401390033
  • 280653Z 03008KT 10SM FEW250 08/04 A3028 RMK AO2 SLP261 T00780039

TAF KSEA
Valid from the 28 at 09:00 until the 29 at 12:00 UTC


280929Z 2809/2912 03005KT P6SM SKC
FM281200 VRB03KT P6SM SCT003 BKN200
TEMPO 2812/2816 3SM BR BKN003 BKN200
FM281700 16006KT P6SM SCT015 SCT050 BKN150
FM282000 18012KT P6SM SCT030 BKN050 OVC100
FM290000 18015G25KT P6SM -RA OVC030
FM290500 21012G22KT P6SM -SHRA BKN025
FM291000 21012KT P6SM VCSH BKN020



MET'MAP, your aeronautical weather chart ! - Copyright ORBIFLY December 2007 - Disclaimer

ORBIFLY MET'MAP TEAM :

Programming & Development : Alexandra Zaïnal
Concept & original design : Baudouin d'Aumeries
Assistance for programming : Marc-Olivier Méhu
Technical & hardware support : Manuel Goepfert

Contact : metmap@orbifly.com




SOURCES & CREDITS :

   NOAA       Earth
Advisory